createdAt,value
2018-12-12T00:02:00.148Z,65.29
2018-12-12T00:04:32.766Z,65.61
2018-12-12T00:07:03.455Z,65.31
2018-12-12T00:09:35.480Z,65.10
2018-12-12T00:12:06.386Z,65.41
2018-12-12T00:14:37.443Z,65.01
2018-12-12T00:17:08.254Z,65.06
2018-12-12T00:19:39.023Z,64.17
2018-12-12T00:22:09.869Z,64.96
2018-12-12T00:24:40.685Z,64.59
2018-12-12T00:27:11.355Z,64.29
2018-12-12T00:29:41.919Z,64.36
2018-12-12T00:32:12.925Z,64.82
2018-12-12T00:34:43.517Z,64.57
2018-12-12T00:37:14.330Z,64.34
2018-12-12T00:39:44.961Z,63.69
2018-12-12T00:42:15.903Z,65.45
2018-12-12T00:44:46.931Z,64.49
2018-12-12T00:47:18.032Z,64.36
2018-12-12T00:49:48.993Z,64.10
2018-12-12T00:52:19.576Z,64.48
2018-12-12T00:54:50.605Z,65.15
2018-12-12T00:57:22.405Z,64.83
2018-12-12T00:59:53.015Z,64.83
2018-12-12T01:02:23.599Z,64.42
2018-12-12T01:04:54.438Z,64.32
2018-12-12T01:07:25.211Z,64.46
2018-12-12T01:09:55.823Z,64.57
2018-12-12T01:12:26.467Z,64.75
2018-12-12T01:14:57.397Z,64.82
2018-12-12T01:17:28.375Z,64.52
2018-12-12T01:19:59.615Z,64.78
2018-12-12T01:22:30.595Z,64.67
2018-12-12T01:25:01.495Z,64.62
2018-12-12T01:27:32.709Z,64.67
2018-12-12T01:30:03.646Z,64.54
2018-12-12T01:32:34.803Z,64.99
2018-12-12T01:35:06.552Z,65.44
2018-12-12T01:37:37.369Z,64.64
2018-12-12T01:40:09.383Z,65.48
2018-12-12T01:42:40.219Z,64.23
2018-12-12T01:45:11.127Z,64.00
2018-12-12T01:47:41.965Z,64.21
2018-12-12T01:50:12.864Z,64.71
2018-12-12T01:52:43.661Z,65.20
2018-12-12T01:55:15.096Z,64.98
2018-12-12T01:57:45.899Z,64.31
2018-12-12T02:00:16.737Z,64.53
2018-12-12T02:02:47.515Z,65.23
2018-12-12T02:05:18.113Z,65.84
2018-12-12T02:07:49.369Z,65.40
2018-12-12T02:10:20.735Z,70.80
2018-12-12T02:13:01.924Z,72.54
2018-12-12T02:15:32.962Z,73.83
2018-12-12T02:18:03.949Z,74.73
2018-12-12T02:20:35.139Z,74.54
2018-12-12T02:23:05.957Z,74.39
2018-12-12T02:25:36.914Z,74.04
2018-12-12T02:28:07.649Z,73.43
2018-12-12T02:30:38.410Z,73.16
2018-12-12T02:33:09.014Z,72.91
2018-12-12T02:35:39.917Z,72.34
2018-12-12T02:38:10.634Z,71.42
2018-12-12T02:40:41.419Z,70.28
2018-12-12T02:43:12.200Z,70.78
2018-12-12T02:45:43.084Z,70.44
2018-12-12T02:48:15.776Z,70.12
2018-12-12T02:50:46.714Z,70.00
2018-12-12T02:53:17.575Z,70.59
2018-12-12T02:55:48.491Z,70.43
2018-12-12T02:58:19.351Z,70.28
2018-12-12T03:00:50.186Z,70.87
2018-12-12T03:03:20.995Z,71.73
2018-12-12T03:05:51.847Z,71.95
2018-12-12T03:08:22.600Z,71.33
2018-12-12T03:10:53.529Z,70.49
2018-12-12T03:13:24.446Z,70.70
2018-12-12T03:15:55.475Z,70.70
2018-12-12T03:18:26.447Z,70.97
2018-12-12T03:20:57.304Z,70.90
2018-12-12T03:23:28.066Z,69.76
2018-12-12T03:25:58.993Z,70.66
2018-12-12T03:28:29.919Z,70.16
2018-12-12T03:31:00.459Z,69.86
2018-12-12T03:33:31.310Z,69.55
2018-12-12T03:36:02.197Z,69.40
2018-12-12T03:38:32.736Z,70.04
2018-12-12T03:41:04.557Z,70.07
2018-12-12T03:43:35.395Z,69.27
2018-12-12T03:46:06.915Z,68.78
2018-12-12T03:48:37.824Z,69.62
2018-12-12T03:51:08.827Z,69.06
2018-12-12T03:53:39.589Z,69.88
2018-12-12T03:56:10.191Z,69.71
2018-12-12T03:58:40.767Z,69.51
2018-12-12T04:01:12.539Z,69.73
2018-12-12T04:03:43.602Z,70.69
2018-12-12T04:06:14.683Z,70.75
2018-12-12T04:08:45.590Z,70.18
2018-12-12T04:11:16.777Z,69.51
2018-12-12T04:13:47.527Z,70.81
2018-12-12T04:16:18.728Z,70.16
2018-12-12T04:18:50.039Z,69.34
2018-12-12T04:21:22.617Z,69.56
2018-12-12T04:23:53.440Z,70.28
2018-12-12T04:26:24.379Z,69.76
2018-12-12T04:28:54.986Z,69.93
2018-12-12T04:31:26.030Z,68.86
2018-12-12T04:33:56.828Z,69.22
2018-12-12T04:36:27.946Z,68.64
2018-12-12T04:38:58.842Z,68.04
2018-12-12T04:41:29.999Z,67.59
2018-12-12T04:44:00.966Z,67.31
2018-12-12T04:46:31.933Z,67.89
2018-12-12T04:49:02.566Z,68.17
2018-12-12T04:51:33.392Z,68.01
2018-12-12T04:54:04.179Z,68.87
2018-12-12T04:56:36.184Z,68.69
2018-12-12T04:59:07.409Z,68.33
2018-12-12T05:01:38.417Z,67.63
2018-12-12T05:04:09.343Z,67.30
2018-12-12T05:06:40.366Z,67.95
2018-12-12T05:09:11.384Z,68.30
2018-12-12T05:11:42.177Z,67.48
2018-12-12T05:14:12.911Z,68.79
2018-12-12T05:16:43.809Z,68.86
2018-12-12T05:19:14.720Z,68.68
2018-12-12T05:21:45.377Z,68.58
2018-12-12T05:24:16.130Z,69.53
2018-12-12T05:26:47.309Z,69.64
2018-12-12T05:29:17.974Z,69.30
2018-12-12T05:31:48.792Z,69.48
2018-12-12T05:34:19.367Z,69.17
2018-12-12T05:36:53.935Z,69.16
2018-12-12T05:39:24.814Z,68.67
2018-12-12T05:41:55.591Z,69.06
2018-12-12T05:44:26.302Z,69.21
2018-12-12T05:46:56.859Z,69.24
2018-12-12T05:49:27.584Z,68.68
2018-12-12T05:51:58.395Z,69.06
2018-12-12T05:54:28.914Z,68.65
2018-12-12T05:56:59.852Z,68.83
2018-12-12T05:59:30.582Z,69.60
2018-12-12T06:02:01.130Z,68.58
2018-12-12T06:04:31.737Z,68.03
2018-12-12T06:07:02.529Z,68.45
2018-12-12T06:09:33.131Z,67.54
2018-12-12T06:12:03.777Z,68.45
2018-12-12T06:14:34.354Z,67.75
2018-12-12T06:17:05.088Z,67.54
2018-12-12T06:19:35.858Z,68.20
2018-12-12T06:22:07.447Z,67.53
2018-12-12T06:24:38.254Z,67.43
2018-12-12T06:27:09.303Z,67.00
2018-12-12T06:29:39.997Z,66.35
2018-12-12T06:32:10.866Z,66.12
2018-12-12T06:34:41.602Z,67.08
2018-12-12T06:37:12.347Z,66.47
2018-12-12T06:39:42.876Z,66.72
2018-12-12T06:42:13.783Z,67.30
2018-12-12T06:44:44.586Z,66.87
2018-12-12T06:47:15.432Z,66.48
2018-12-12T06:49:46.536Z,66.43
2018-12-12T06:52:17.456Z,67.08
2018-12-12T06:54:48.207Z,66.29
2018-12-12T06:57:19.007Z,66.39
2018-12-12T06:59:49.840Z,65.89
2018-12-12T07:02:20.654Z,66.01
2018-12-12T07:04:51.507Z,65.69
2018-12-12T07:07:22.638Z,64.69
2018-12-12T07:09:53.098Z,64.51
2018-12-12T07:12:24.447Z,64.02
2018-12-12T07:14:54.973Z,64.53
2018-12-12T07:17:25.561Z,64.91
2018-12-12T07:19:56.451Z,64.06
2018-12-12T07:22:27.030Z,63.00
2018-12-12T07:24:57.949Z,62.38
2018-12-12T07:27:28.947Z,61.92
2018-12-12T07:29:59.769Z,59.92
2018-12-12T07:32:30.869Z,60.32
2018-12-12T07:35:01.941Z,60.31
2018-12-12T07:37:32.889Z,60.80
2018-12-12T07:40:03.650Z,61.78
2018-12-12T07:42:34.429Z,61.09
2018-12-12T07:45:10.599Z,61.25
2018-12-12T07:47:43.201Z,62.02
2018-12-12T07:50:31.400Z,61.62
2018-12-12T07:53:07.666Z,62.16
2018-12-12T07:55:38.532Z,62.35
2018-12-12T07:58:09.593Z,62.06
2018-12-12T08:00:40.312Z,60.72
2018-12-12T08:03:11.229Z,62.12
2018-12-12T08:05:43.321Z,60.79
2018-12-12T08:08:14.214Z,59.83
2018-12-12T08:10:45.017Z,59.32
2018-12-12T08:13:15.972Z,59.46
2018-12-12T08:15:46.952Z,59.13
2018-12-12T08:18:17.624Z,59.19
2018-12-12T08:20:48.738Z,60.28
2018-12-12T08:23:20.097Z,61.85
2018-12-12T08:25:50.809Z,61.89
2018-12-12T08:28:21.537Z,61.63
2018-12-12T08:30:52.076Z,62.97
2018-12-12T08:33:22.967Z,63.65
2018-12-12T08:35:53.836Z,64.36
2018-12-12T08:38:24.698Z,63.72
2018-12-12T08:40:55.621Z,65.01
2018-12-12T08:43:26.767Z,65.29
2018-12-12T08:45:57.321Z,64.71
2018-12-12T08:48:28.143Z,65.38
2018-12-12T08:50:59.214Z,65.23
2018-12-12T08:53:30.092Z,65.75
2018-12-12T08:56:00.757Z,65.84
2018-12-12T08:58:38.735Z,65.53
2018-12-12T09:01:09.667Z,65.06
2018-12-12T09:03:40.738Z,65.44
2018-12-12T09:06:11.300Z,64.97
2018-12-12T09:08:42.097Z,64.62
2018-12-12T09:11:13.264Z,62.75
2018-12-12T09:13:44.625Z,62.18
2018-12-12T09:16:15.736Z,61.54
2018-12-12T09:18:46.890Z,60.92
2018-12-12T09:21:18.004Z,61.22
2018-12-12T09:23:49.022Z,61.33
2018-12-12T09:26:20.092Z,61.41
2018-12-12T09:28:51.151Z,61.86
2018-12-12T09:31:23.923Z,61.53
2018-12-12T09:33:56.760Z,62.27
2018-12-12T09:36:27.641Z,62.35
2018-12-12T09:38:58.566Z,61.96
2018-12-12T09:41:29.543Z,60.27
2018-12-12T09:44:00.492Z,61.05
2018-12-12T09:46:30.992Z,61.73
2018-12-12T09:49:01.816Z,61.20
2018-12-12T09:51:34.356Z,60.75
2018-12-12T09:54:07.096Z,60.63
2018-12-12T09:56:38.104Z,60.31
2018-12-12T09:59:09.301Z,61.34
2018-12-12T10:01:40.171Z,60.50
2018-12-12T10:04:11.360Z,59.44
2018-12-12T10:06:42.107Z,61.91
2018-12-12T10:09:13.093Z,60.17
2018-12-12T10:11:43.997Z,59.89
2018-12-12T10:14:14.583Z,60.01
2018-12-12T10:16:45.663Z,59.43
2018-12-12T10:19:16.921Z,58.54
2018-12-12T10:21:48.141Z,59.73
2018-12-12T10:24:20.250Z,59.61
2018-12-12T10:26:51.219Z,59.30
2018-12-12T10:29:22.064Z,58.56
2018-12-12T10:31:52.690Z,58.97
2018-12-12T10:34:24.090Z,58.63
2018-12-12T10:36:55.078Z,58.38
2018-12-12T10:39:25.765Z,58.11
2018-12-12T10:41:56.740Z,58.29
2018-12-12T10:44:27.642Z,57.27
2018-12-12T10:46:58.167Z,57.71
2018-12-12T10:49:29.186Z,57.22
2018-12-12T10:51:59.851Z,58.12
2018-12-12T10:54:30.297Z,58.34
2018-12-12T10:57:01.234Z,58.77
2018-12-12T10:59:31.989Z,58.56
2018-12-12T11:02:07.748Z,59.94
2018-12-12T11:04:38.666Z,60.41
2018-12-12T11:07:09.329Z,60.01
2018-12-12T11:09:40.772Z,59.53
2018-12-12T11:12:11.786Z,59.33
2018-12-12T11:14:42.533Z,60.15
2018-12-12T11:17:13.173Z,57.76
2018-12-12T11:19:44.036Z,56.09
2018-12-12T11:22:14.966Z,57.47
2018-12-12T11:24:46.161Z,53.25
2018-12-12T11:27:17.000Z,53.36
2018-12-12T11:29:48.161Z,51.88
2018-12-12T11:32:19.102Z,52.02
2018-12-12T11:34:49.896Z,51.14
2018-12-12T11:37:20.427Z,50.45
2018-12-12T11:39:51.039Z,51.06
2018-12-12T11:42:21.824Z,51.29
2018-12-12T11:44:52.344Z,51.22
2018-12-12T11:47:23.034Z,50.36
2018-12-12T11:49:53.966Z,50.37
2018-12-12T11:52:25.553Z,50.98
2018-12-12T11:54:56.235Z,51.05
2018-12-12T11:57:27.842Z,51.71
2018-12-12T12:00:05.222Z,51.08
2018-12-12T12:02:35.906Z,51.85
2018-12-12T12:05:07.242Z,52.63
2018-12-12T12:07:38.127Z,52.26
2018-12-12T12:10:11.126Z,53.20
2018-12-12T12:12:41.962Z,53.87
2018-12-12T12:15:13.008Z,54.16
2018-12-12T12:17:43.691Z,55.30
2018-12-12T12:20:14.735Z,54.93
2018-12-12T12:22:45.471Z,53.68
2018-12-12T12:25:16.341Z,54.21
2018-12-12T12:27:47.229Z,53.69
2018-12-12T12:30:18.020Z,52.92
2018-12-12T12:32:48.696Z,53.92
2018-12-12T12:35:19.490Z,51.78
2018-12-12T12:37:50.352Z,51.20
2018-12-12T12:40:21.115Z,51.20
2018-12-12T12:42:51.940Z,51.12
2018-12-12T12:45:22.798Z,52.08
2018-12-12T12:47:53.598Z,52.82
2018-12-12T12:50:24.768Z,53.77
2018-12-12T12:52:55.576Z,54.22
2018-12-12T12:55:26.600Z,54.42
2018-12-12T12:57:57.528Z,55.38
2018-12-12T13:00:28.695Z,55.34
2018-12-12T13:02:59.643Z,55.51
2018-12-12T13:05:30.606Z,56.91
2018-12-12T13:08:01.280Z,55.48
2018-12-12T13:10:32.284Z,56.63
2018-12-12T13:13:03.678Z,55.91
2018-12-12T13:15:35.289Z,57.17
2018-12-12T13:18:06.830Z,57.14
2018-12-12T13:20:37.661Z,57.42
2018-12-12T13:23:08.241Z,57.54
2018-12-12T13:25:38.875Z,58.11
2018-12-12T13:28:09.432Z,57.81
2018-12-12T13:30:40.651Z,58.24
2018-12-12T13:33:11.775Z,58.29
2018-12-12T13:35:43.095Z,59.28
2018-12-12T13:38:13.936Z,58.71
2018-12-12T13:40:44.844Z,58.91
2018-12-12T13:43:15.382Z,59.51
2018-12-12T13:45:47.047Z,59.74
2018-12-12T13:48:17.547Z,60.40
2018-12-12T13:50:48.175Z,60.11
2018-12-12T13:53:18.662Z,59.90
2018-12-12T13:55:49.494Z,60.44
2018-12-12T13:58:20.421Z,60.96
2018-12-12T14:00:51.124Z,60.71
2018-12-12T14:03:21.799Z,60.70
2018-12-12T14:05:52.321Z,61.34
2018-12-12T14:08:22.878Z,61.57
2018-12-12T14:10:53.543Z,61.83
2018-12-12T14:13:24.400Z,61.94
2018-12-12T14:15:55.129Z,62.22
2018-12-12T14:18:25.937Z,62.23
2018-12-12T14:20:56.742Z,61.91
2018-12-12T14:23:28.820Z,63.28
2018-12-12T14:25:59.796Z,62.18
2018-12-12T14:28:30.605Z,63.30
2018-12-12T14:31:01.726Z,63.57
2018-12-12T14:33:32.902Z,63.17
2018-12-12T14:36:03.794Z,63.01
2018-12-12T14:38:34.475Z,63.04
2018-12-12T14:41:05.541Z,62.70
2018-12-12T14:43:36.103Z,62.64
2018-12-12T14:46:06.641Z,63.66
2018-12-12T14:48:37.563Z,62.79
2018-12-12T14:51:08.122Z,63.67
2018-12-12T14:53:38.941Z,63.49
2018-12-12T14:56:09.797Z,62.88
2018-12-12T14:58:41.233Z,63.31
2018-12-12T15:01:12.048Z,62.42
2018-12-12T15:03:42.633Z,62.35
2018-12-12T15:06:13.408Z,62.87
2018-12-12T15:08:44.197Z,62.33
2018-12-12T15:11:14.938Z,60.74
2018-12-12T15:13:45.690Z,60.11
2018-12-12T15:16:16.629Z,60.79
2018-12-12T15:18:47.328Z,59.46
2018-12-12T15:21:18.099Z,59.51
2018-12-12T15:23:49.025Z,59.42
2018-12-12T15:26:19.672Z,58.18
2018-12-12T15:28:50.477Z,58.17
2018-12-12T15:31:21.461Z,58.53
2018-12-12T15:33:52.438Z,57.70
2018-12-12T15:36:23.195Z,57.17
2018-12-12T15:38:54.000Z,58.30
2018-12-12T15:41:24.700Z,58.24
2018-12-12T15:43:55.343Z,57.25
2018-12-12T15:46:26.024Z,56.96
2018-12-12T15:48:56.862Z,57.65
2018-12-12T15:51:27.645Z,59.92
2018-12-12T15:53:58.439Z,60.43
2018-12-12T15:56:29.185Z,60.39
2018-12-12T15:58:59.986Z,60.60
2018-12-12T16:01:30.858Z,61.40
2018-12-12T16:04:01.665Z,61.48
2018-12-12T16:06:32.515Z,60.28
2018-12-12T16:09:03.048Z,60.62
2018-12-12T16:11:35.763Z,60.24
2018-12-12T16:14:06.590Z,60.59
2018-12-12T16:16:37.242Z,60.83
2018-12-12T16:19:07.739Z,60.73
2018-12-12T16:21:38.616Z,61.76
2018-12-12T16:24:09.372Z,60.72
2018-12-12T16:26:40.273Z,61.44
2018-12-12T16:29:11.040Z,61.66
2018-12-12T16:31:42.050Z,61.76
2018-12-12T16:34:12.785Z,62.11
2018-12-12T16:36:43.536Z,62.26
2018-12-12T16:39:14.018Z,62.91
2018-12-12T16:41:44.978Z,62.73
2018-12-12T16:44:15.659Z,63.50
2018-12-12T16:46:51.468Z,63.21
2018-12-12T16:49:22.005Z,63.36
2018-12-12T16:51:52.935Z,62.81
2018-12-12T16:54:23.474Z,63.35
2018-12-12T16:56:54.008Z,63.54
2018-12-12T16:59:24.655Z,62.57
2018-12-12T17:01:55.521Z,63.55
2018-12-12T17:04:26.296Z,63.55
2018-12-12T17:06:56.796Z,62.73
2018-12-12T17:09:27.644Z,63.06
2018-12-12T17:11:58.417Z,62.07
2018-12-12T17:14:29.307Z,62.30
2018-12-12T17:17:00.148Z,63.13
2018-12-12T17:19:30.949Z,63.15
2018-12-12T17:22:01.809Z,64.24
2018-12-12T17:24:32.826Z,63.27
2018-12-12T17:27:03.463Z,63.34
2018-12-12T17:29:34.300Z,62.35
2018-12-12T17:32:05.195Z,63.33
2018-12-12T17:34:35.921Z,62.83
2018-12-12T17:37:06.613Z,62.39
2018-12-12T17:39:37.450Z,61.37
2018-12-12T17:42:08.123Z,61.51
2018-12-12T17:44:40.037Z,61.24
2018-12-12T17:47:10.886Z,60.54
2018-12-12T17:49:41.834Z,60.62
2018-12-12T17:52:12.717Z,60.77
2018-12-12T17:54:43.427Z,61.30
2018-12-12T17:57:13.943Z,61.69
2018-12-12T17:59:45.827Z,60.94
2018-12-12T18:02:16.740Z,62.27
2018-12-12T18:05:15.115Z,61.37
2018-12-12T18:07:42.436Z,61.93
2018-12-12T18:10:13.383Z,63.73
2018-12-12T18:12:44.175Z,63.79
2018-12-12T18:15:16.761Z,63.37
2018-12-12T18:17:49.574Z,63.79
2018-12-12T18:20:20.980Z,63.79
2018-12-12T18:22:51.623Z,64.19
2018-12-12T18:25:24.219Z,63.98
2018-12-12T18:27:54.958Z,64.58
2018-12-12T18:30:25.931Z,64.65
2018-12-12T18:32:58.468Z,64.92
2018-12-12T18:35:45.736Z,64.83
2018-12-12T18:38:16.578Z,64.17
2018-12-12T18:40:47.395Z,64.66
2018-12-12T18:43:19.947Z,65.29
2018-12-12T18:45:50.445Z,65.11
2018-12-12T18:48:21.350Z,63.98
2018-12-12T18:50:53.893Z,64.06
2018-12-12T18:53:26.498Z,64.16
2018-12-12T18:55:59.000Z,64.14
2018-12-12T18:58:29.841Z,63.69
2018-12-12T19:01:00.441Z,63.62
2018-12-12T19:03:31.096Z,64.58
2018-12-12T19:06:01.873Z,64.83
2018-12-12T19:08:32.406Z,64.85
2018-12-12T19:11:02.873Z,64.50
2018-12-12T19:13:33.405Z,64.48
2018-12-12T19:16:04.240Z,65.34
2018-12-12T19:18:35.000Z,66.34
2018-12-12T19:21:05.864Z,66.66
2018-12-12T19:23:37.130Z,66.22
2018-12-12T19:26:07.854Z,66.51
2018-12-12T19:28:38.710Z,66.64
2018-12-12T19:31:10.434Z,67.43
2018-12-12T19:33:41.182Z,67.86
2018-12-12T19:36:12.004Z,68.47
2018-12-12T19:38:42.955Z,68.21
2018-12-12T19:41:13.721Z,68.88
2018-12-12T19:43:44.499Z,69.12
2018-12-12T19:46:15.272Z,68.16
2018-12-12T19:48:45.847Z,68.02
2018-12-12T19:51:16.952Z,68.73
2018-12-12T19:53:49.222Z,68.83
2018-12-12T19:56:20.015Z,68.19
2018-12-12T19:58:51.924Z,68.82
2018-12-12T20:01:22.691Z,68.69
2018-12-12T20:03:53.544Z,68.95
2018-12-12T20:06:24.628Z,68.90
2018-12-12T20:08:55.169Z,68.58
2018-12-12T20:11:25.924Z,68.60
2018-12-12T20:13:56.814Z,68.39
2018-12-12T20:16:27.828Z,67.62
2018-12-12T20:18:58.608Z,68.17
2018-12-12T20:21:29.324Z,67.58
2018-12-12T20:23:59.886Z,68.13
2018-12-12T20:26:30.803Z,68.70
2018-12-12T20:29:01.672Z,69.64
2018-12-12T20:31:32.557Z,69.45
2018-12-12T20:34:03.400Z,69.21
2018-12-12T20:36:34.892Z,69.26
2018-12-12T20:39:07.923Z,68.17
2018-12-12T20:41:40.652Z,68.38
2018-12-12T20:44:11.779Z,68.56
2018-12-12T20:46:43.147Z,67.83
2018-12-12T20:49:14.115Z,68.25
2018-12-12T20:51:44.922Z,68.27
2018-12-12T20:54:15.823Z,68.42
2018-12-12T20:56:46.427Z,68.36
2018-12-12T20:59:16.994Z,67.92
2018-12-12T21:01:47.465Z,67.56
2018-12-12T21:04:18.111Z,67.88
2018-12-12T21:06:48.745Z,67.37
2018-12-12T21:09:19.398Z,67.42
2018-12-12T21:11:49.938Z,66.92
2018-12-12T21:14:20.468Z,67.37
2018-12-12T21:16:50.995Z,68.00
2018-12-12T21:19:21.520Z,68.18
2018-12-12T21:21:52.127Z,68.23
2018-12-12T21:24:23.238Z,68.51
2018-12-12T21:26:53.963Z,67.93
2018-12-12T21:29:24.529Z,68.45
2018-12-12T21:31:55.082Z,68.54
2018-12-12T21:34:25.643Z,68.50
2018-12-12T21:36:56.242Z,67.75
2018-12-12T21:39:26.792Z,67.73
2018-12-12T21:41:57.362Z,68.13
2018-12-12T21:44:27.938Z,68.12
2018-12-12T21:46:58.413Z,68.11
2018-12-12T21:49:29.241Z,67.84
2018-12-12T21:52:00.136Z,67.43
2018-12-12T21:54:30.651Z,67.50
2018-12-12T21:57:04.110Z,67.03
2018-12-12T21:59:35.251Z,66.93
2018-12-12T22:02:06.187Z,67.61
2018-12-12T22:04:37.421Z,67.33
2018-12-12T22:07:08.271Z,68.13
2018-12-12T22:09:39.343Z,67.56
2018-12-12T22:12:10.197Z,68.01
2018-12-12T22:14:40.923Z,68.10
2018-12-12T22:17:11.843Z,68.36
2018-12-12T22:19:42.637Z,68.05
2018-12-12T22:22:13.553Z,67.85
2018-12-12T22:24:44.133Z,68.13
2018-12-12T22:27:14.684Z,67.69
2018-12-12T22:29:45.247Z,68.02
2018-12-12T22:32:16.151Z,67.83
2018-12-12T22:34:46.809Z,67.89
2018-12-12T22:37:17.366Z,67.19
2018-12-12T22:39:48.227Z,68.24
2018-12-12T22:42:18.735Z,67.18
2018-12-12T22:44:49.554Z,67.69
2018-12-12T22:47:20.517Z,67.65
2018-12-12T22:49:52.320Z,67.79
2018-12-12T22:52:23.082Z,68.19
2018-12-12T22:54:53.731Z,67.67
2018-12-12T22:57:24.683Z,67.81
2018-12-12T22:59:55.345Z,68.70
2018-12-12T23:02:26.798Z,68.58
2018-12-12T23:04:57.618Z,68.27
2018-12-12T23:07:28.571Z,68.03
2018-12-12T23:09:59.546Z,67.88
2018-12-12T23:12:30.687Z,68.88
2018-12-12T23:15:01.550Z,69.02
2018-12-12T23:17:33.592Z,70.19
2018-12-12T23:20:04.805Z,70.23
2018-12-12T23:22:35.812Z,70.83
2018-12-12T23:25:06.790Z,71.82
2018-12-12T23:27:37.571Z,71.12
2018-12-12T23:30:09.112Z,71.06
2018-12-12T23:32:40.059Z,71.12
2018-12-12T23:35:11.050Z,71.51
2018-12-12T23:37:41.853Z,71.49
2018-12-12T23:40:12.822Z,72.18
2018-12-12T23:42:43.788Z,72.51
2018-12-12T23:45:14.807Z,72.05
2018-12-12T23:47:45.659Z,71.86
2018-12-12T23:50:16.255Z,70.84
2018-12-12T23:52:47.058Z,70.34
2018-12-12T23:55:17.905Z,71.79
2018-12-12T23:57:48.888Z,72.53
